Time;durP1;ratioP1;P1;durP2;ratioP2;P2;SDS_P1;SDS_P2;PMS_P1;PMS_P2;Temp;Humidity;BMP_temperature;BMP_pressure;BME280_temperature;BME280_humidity;BME280_pressure;Samples;Min_cycle;Max_cycle;Signal;HPM_P1;HPM_P2
2021/06/17 00:01:37;;;;;;;4.17;3.87;;;23.00;65.00;;;;;;10485976;28;20208;-81
2021/06/17 00:06:39;;;;;;;3.40;3.20;;;23.00;65.60;;;;;;10487768;28;20225;-82
2021/06/17 00:11:42;;;;;;;3.80;3.60;;;23.00;65.90;;;;;;10464709;28;20198;-81
2021/06/17 00:16:49;;;;;;;3.77;3.57;;;22.90;66.00;;;;;;10469779;28;20621;-81
2021/06/17 00:21:52;;;;;;;3.87;3.57;;;22.90;66.10;;;;;;10489440;28;20279;-79
2021/06/17 00:26:54;;;;;;;4.50;4.13;;;22.80;66.60;;;;;;10455258;28;20295;-81
2021/06/17 00:31:58;;;;;;;4.00;3.50;;;22.80;66.00;;;;;;10473360;28;20250;-79
2021/06/17 00:37:00;;;;;;;4.40;4.00;;;22.70;67.30;;;;;;10470138;28;20208;-82
2021/06/17 00:42:02;;;;;;;4.60;4.00;;;22.60;67.10;;;;;;10497403;28;20192;-82
2021/06/17 00:47:06;;;;;;;4.33;3.90;;;22.60;67.60;;;;;;10491438;28;20227;-81
2021/06/17 00:52:08;;;;;;;4.10;3.80;;;22.60;66.90;;;;;;10478117;28;20280;-80
2021/06/17 00:57:11;;;;;;;4.50;4.07;;;22.60;66.70;;;;;;10471550;28;20689;-82
2021/06/17 01:02:14;;;;;;;4.40;4.10;;;22.60;67.40;;;;;;10491611;28;20210;-82
2021/06/17 01:07:33;;;;;;;4.00;3.60;;;22.60;67.50;;;;;;10505133;28;20232;-81
2021/06/17 01:12:45;;;;;;;4.57;4.20;;;22.50;66.90;;;;;;10491267;28;20215;-82
2021/06/17 01:17:56;;;;;;;3.93;3.63;;;22.50;67.30;;;;;;10492345;28;20580;-82
2021/06/17 01:23:19;;;;;;;4.47;4.17;;;22.50;66.70;;;;;;10497665;28;20213;-82
2021/06/17 01:28:24;;;;;;;4.47;4.07;;;22.40;66.10;;;;;;10490624;28;20225;-82
2021/06/17 01:33:28;;;;;;;4.10;3.80;;;22.40;67.80;;;;;;10483130;28;20220;-81
2021/06/17 01:38:32;;;;;;;4.20;3.90;;;22.30;68.40;;;;;;10497222;28;20668;-80
2021/06/17 01:43:36;;;;;;;4.40;4.00;;;22.40;67.80;;;;;;10463234;28;20249;-80
2021/06/17 01:48:38;;;;;;;4.10;3.83;;;22.30;67.30;;;;;;10474820;28;20201;-80
2021/06/17 01:53:41;;;;;;;4.20;3.90;;;22.30;68.60;;;;;;10481688;28;20217;-80
2021/06/17 01:58:46;;;;;;;4.13;3.57;;;22.20;68.10;;;;;;10495581;28;20731;-80
2021/06/17 02:03:48;;;;;;;4.90;3.73;;;22.20;68.80;;;;;;10501230;28;20243;-79
2021/06/17 02:08:53;;;;;;;3.77;3.53;;;22.10;68.20;;;;;;10495099;28;20196;-81
2021/06/17 02:13:58;;;;;;;4.37;3.97;;;22.10;67.00;;;;;;10458250;28;20732;-82
2021/06/17 02:19:04;;;;;;;3.70;3.40;;;22.10;68.30;;;;;;10468096;28;20220;-80
2021/06/17 02:24:09;;;;;;;4.60;4.20;;;22.00;67.60;;;;;;10475621;28;20279;-81
2021/06/17 02:29:15;;;;;;;3.70;3.40;;;21.90;67.80;;;;;;10456821;28;20232;-82
2021/06/17 02:34:18;;;;;;;4.23;3.60;;;21.90;67.50;;;;;;10499209;28;20303;-81
2021/06/17 02:39:24;;;;;;;3.60;3.40;;;21.80;67.40;;;;;;10500408;28;20261;-80
2021/06/17 02:44:30;;;;;;;5.17;3.77;;;21.80;68.50;;;;;;10492288;28;20301;-80
2021/06/17 02:49:32;;;;;;;4.43;3.97;;;21.70;68.80;;;;;;10494142;28;20195;-82
2021/06/17 02:54:35;;;;;;;5.03;3.80;;;21.70;67.50;;;;;;10498888;28;20299;-82
2021/06/17 02:59:54;;;;;;;4.20;3.80;;;21.70;67.70;;;;;;10497200;28;20565;-79
2021/06/17 03:05:05;;;;;;;4.37;3.73;;;21.60;69.20;;;;;;10489369;28;20339;-82
2021/06/17 03:10:09;;;;;;;4.50;4.20;;;21.50;69.40;;;;;;10497632;28;20200;-82
2021/06/17 03:15:13;;;;;;;3.70;3.50;;;21.50;69.20;;;;;;10493834;28;20297;-83
2021/06/17 03:20:18;;;;;;;4.43;4.13;;;21.40;70.30;;;;;;10494392;28;20194;-82
2021/06/17 03:25:23;;;;;;;3.70;3.40;;;21.40;70.40;;;;;;10494321;28;20228;-81
2021/06/17 03:30:29;;;;;;;4.20;3.90;;;21.40;69.60;;;;;;10495356;28;20639;-81
2021/06/17 03:35:34;;;;;;;4.50;4.10;;;21.40;70.50;;;;;;10491349;28;20744;-83
2021/06/17 03:40:38;;;;;;;5.20;3.97;;;21.40;69.50;;;;;;10497330;28;20200;-80
2021/06/17 03:45:44;;;;;;;3.67;3.47;;;21.30;69.70;;;;;;10496063;28;20251;-81
2021/06/17 03:50:49;;;;;;;4.27;3.70;;;21.30;70.60;;;;;;10495184;28;20200;-81
2021/06/17 03:55:54;;;;;;;11.80;10.80;;;21.30;70.00;;;;;;10495877;28;20612;-83
2021/06/17 04:00:58;;;;;;;4.47;4.10;;;21.30;70.40;;;;;;10475594;28;20680;-82
2021/06/17 04:06:01;;;;;;;4.40;4.00;;;21.30;69.70;;;;;;10496399;28;20225;-82
2021/06/17 04:11:05;;;;;;;4.37;3.97;;;21.30;70.30;;;;;;10489080;28;20579;-81
2021/06/17 04:16:12;;;;;;;4.93;4.50;;;21.40;70.60;;;;;;10495603;28;20224;-82
2021/06/17 04:21:15;;;;;;;4.10;3.80;;;21.40;71.40;;;;;;10496428;28;20230;-81
2021/06/17 04:26:19;;;;;;;5.20;4.80;;;21.40;71.60;;;;;;10495664;28;20311;-82
2021/06/17 04:31:23;;;;;;;5.57;4.50;;;21.50;72.00;;;;;;10498431;28;20239;-80
2021/06/17 04:36:26;;;;;;;4.53;4.13;;;21.50;71.90;;;;;;10510622;28;20270;-80
2021/06/17 04:41:28;;;;;;;4.93;4.53;;;21.60;71.20;;;;;;10472515;28;20211;-81
2021/06/17 04:46:33;;;;;;;4.73;4.33;;;21.60;71.80;;;;;;10490490;28;20666;-82
2021/06/17 04:51:37;;;;;;;4.07;3.80;;;21.60;72.00;;;;;;10478007;28;20299;-82
2021/06/17 04:56:40;;;;;;;4.97;4.67;;;21.50;72.90;;;;;;10493298;28;20216;-82
2021/06/17 05:01:43;;;;;;;5.20;4.40;;;21.50;73.10;;;;;;10495936;28;20193;-82
2021/06/17 05:06:56;;;;;;;3.40;3.20;;;21.50;72.80;;;;;;10496450;28;20234;-82
2021/06/17 05:11:58;;;;;;;4.20;3.80;;;21.60;74.40;;;;;;10495554;28;20253;-81
2021/06/17 05:17:02;;;;;;;7.57;4.57;;;21.70;74.30;;;;;;10494230;28;20240;-81
2021/06/17 05:22:05;;;;;;;4.50;4.10;;;21.70;74.60;;;;;;10482424;28;20643;-80
2021/06/17 05:27:08;;;;;;;4.10;3.80;;;21.80;75.80;;;;;;10498939;28;20697;-81
2021/06/17 05:32:14;;;;;;;4.90;4.50;;;21.80;73.70;;;;;;10496569;28;20300;-81
2021/06/17 05:37:16;;;;;;;5.60;5.10;;;21.90;75.30;;;;;;10497853;28;20235;-82
2021/06/17 05:42:18;;;;;;;5.53;4.97;;;21.90;75.10;;;;;;10500927;28;20231;-81
2021/06/17 05:47:22;;;;;;;5.23;4.73;;;22.00;75.70;;;;;;10501802;28;20221;-81
2021/06/17 05:52:24;;;;;;;5.80;4.90;;;22.10;74.80;;;;;;10506568;28;20232;-81
2021/06/17 05:57:26;;;;;;;4.90;4.47;;;22.10;75.80;;;;;;10506376;28;20228;-81
2021/06/17 06:02:29;;;;;;;5.63;4.73;;;22.20;75.80;;;;;;10514969;28;20231;-81
2021/06/17 06:07:32;;;;;;;6.83;5.43;;;22.30;75.00;;;;;;10507291;28;20611;-81
2021/06/17 06:12:34;;;;;;;15.07;13.50;;;22.30;76.10;;;;;;10505358;28;20212;-80
2021/06/17 06:17:37;;;;;;;8.80;7.43;;;22.40;76.00;;;;;;10504646;28;20219;-80
2021/06/17 06:22:40;;;;;;;5.40;4.90;;;22.50;75.60;;;;;;10503979;28;20207;-82
2021/06/17 06:27:43;;;;;;;4.57;4.20;;;22.60;74.60;;;;;;10511677;28;20231;-80
2021/06/17 06:32:46;;;;;;;4.33;3.90;;;22.70;74.60;;;;;;10507889;28;20650;-82
2021/06/17 06:37:49;;;;;;;4.13;3.80;;;22.80;74.50;;;;;;10506674;28;20206;-82
2021/06/17 06:42:51;;;;;;;3.83;3.57;;;23.00;74.00;;;;;;10504975;28;20224;-80
2021/06/17 06:47:55;;;;;;;3.83;3.53;;;23.30;73.70;;;;;;10505361;28;20212;-81
2021/06/17 06:52:57;;;;;;;5.00;4.20;;;23.60;71.60;;;;;;10488367;28;20309;-81
2021/06/17 06:57:59;;;;;;;5.70;3.70;;;24.00;70.40;;;;;;10505667;28;20189;-80
2021/06/17 07:03:03;;;;;;;4.50;4.10;;;24.40;70.40;;;;;;10509205;28;20220;-80
2021/06/17 07:08:09;;;;;;;7.60;4.77;;;24.70;67.20;;;;;;10506452;28;20243;-81
2021/06/17 07:13:13;;;;;;;5.10;4.70;;;25.00;68.50;;;;;;10509083;28;20232;-82
2021/06/17 07:18:17;;;;;;;4.93;4.50;;;25.50;67.30;;;;;;10509025;28;20192;-82
2021/06/17 07:23:20;;;;;;;4.67;4.27;;;26.00;62.20;;;;;;10508304;28;20641;-82
2021/06/17 07:28:25;;;;;;;4.63;4.30;;;26.70;62.30;;;;;;10493195;28;20299;-82
2021/06/17 07:33:29;;;;;;;5.10;4.70;;;27.20;60.70;;;;;;10510835;28;20252;-82
2021/06/17 07:38:31;;;;;;;4.20;3.80;;;27.80;59.80;;;;;;10512874;28;20668;-81
2021/06/17 07:43:33;;;;;;;4.10;3.40;;;28.50;58.80;;;;;;10506617;28;20255;-81
2021/06/17 07:48:38;;;;;;;4.30;3.90;;;29.00;57.60;;;;;;10509477;28;20252;-79
2021/06/17 07:53:40;;;;;;;4.03;3.80;;;29.60;56.60;;;;;;10506966;28;20216;-81
2021/06/17 07:58:43;;;;;;;4.70;4.30;;;30.10;54.80;;;;;;10508329;28;20664;-80
2021/06/17 08:03:46;;;;;;;4.40;4.10;;;30.70;54.70;;;;;;10490645;28;20236;-82
2021/06/17 08:08:49;;;;;;;6.23;4.37;;;31.20;53.70;;;;;;10508955;28;20239;-82
2021/06/17 08:13:51;;;;;;;4.60;4.20;;;31.70;53.50;;;;;;10509437;28;20224;-81
2021/06/17 08:18:55;;;;;;;10.13;4.00;;;32.20;52.70;;;;;;10520779;28;20288;-82
2021/06/17 08:23:57;;;;;;;4.00;3.70;;;32.70;51.40;;;;;;10507192;28;20213;-82
2021/06/17 08:28:59;;;;;;;4.80;4.40;;;33.00;52.10;;;;;;10491219;28;20208;-81
2021/06/17 08:34:03;;;;;;;5.40;4.50;;;33.50;50.90;;;;;;10488070;28;20224;-81
2021/06/17 08:39:06;;;;;;;4.20;3.90;;;33.90;49.00;;;;;;10478739;28;20200;-82
2021/06/17 08:44:08;;;;;;;3.87;3.67;;;34.10;45.80;;;;;;10455040;28;20229;-82
2021/06/17 08:49:14;;;;;;;3.20;3.00;;;34.30;47.20;;;;;;10487762;28;20664;-81
2021/06/17 08:54:24;;;;;;;4.53;4.23;;;34.60;47.20;;;;;;10476837;28;20650;-81
2021/06/17 08:59:35;;;;;;;4.50;3.87;;;34.80;45.90;;;;;;10462119;28;20228;-81
2021/06/17 09:04:38;;;;;;;6.40;4.10;;;35.20;45.90;;;;;;10492236;28;20231;-81
2021/06/17 09:09:42;;;;;;;4.53;3.70;;;35.40;45.40;;;;;;10484583;28;20283;-83
2021/06/17 09:14:51;;;;;;;4.30;4.00;;;35.60;45.20;;;;;;10470310;28;20223;-82
2021/06/17 09:19:55;;;;;;;3.50;3.10;;;35.90;44.90;;;;;;10495534;28;20287;-81
2021/06/17 09:24:59;;;;;;;7.43;4.07;;;36.10;44.90;;;;;;10493300;28;20338;-81
2021/06/17 09:30:17;;;;;;;5.03;4.50;;;36.60;44.40;;;;;;10493744;28;20720;-83
2021/06/17 09:35:23;;;;;;;4.30;4.10;;;37.00;44.10;;;;;;10498383;28;20606;-82
2021/06/17 09:40:27;;;;;;;4.17;3.87;;;36.90;45.30;;;;;;10493007;28;20228;-82
2021/06/17 09:45:32;;;;;;;5.45;4.60;;;37.10;42.90;;;;;;10493533;28;20224;-82
2021/06/17 09:50:35;;;;;;;6.20;4.82;;;38.30;42.00;;;;;;10502081;28;20222;-82
2021/06/17 09:55:42;;;;;;;4.65;4.35;;;39.90;39.60;;;;;;10474933;28;20266;-83
2021/06/17 10:01:00;;;;;;;4.88;4.60;;;41.60;38.90;;;;;;10495276;28;20240;-83
2021/06/17 10:06:17;;;;;;;4.93;4.18;;;43.10;37.60;;;;;;10485159;28;20220;-83
2021/06/17 10:11:26;;;;;;;5.90;5.00;;;44.20;35.80;;;;;;10483571;28;20195;-84
2021/06/17 10:16:35;;;;;;;4.07;3.75;;;44.90;33.20;;;;;;10465954;28;20224;-84
2021/06/17 10:21:39;;;;;;;4.35;3.90;;;45.60;34.40;;;;;;10481338;28;20197;-83
2021/06/17 10:26:46;;;;;;;4.40;4.00;;;45.50;32.60;;;;;;10499399;28;20208;-83
2021/06/17 10:32:01;;;;;;;5.10;4.70;;;43.00;32.00;;;;;;10493723;28;20613;-83
2021/06/17 10:37:10;;;;;;;9.07;4.40;;;40.40;35.50;;;;;;10479307;22;20241;-81
2021/06/17 10:42:29;;;;;;;4.60;4.30;;;38.40;37.60;;;;;;10391043;28;20205;-81
2021/06/17 10:48:13;;;;;;;5.27;4.87;;;36.90;39.60;;;;;;10347217;28;20198;-84
2021/06/17 10:53:40;;;;;;;5.63;5.33;;;35.50;41.50;;;;;;10336413;28;20239;-84
2021/06/17 10:59:01;;;;;;;5.50;5.10;;;34.50;42.90;;;;;;10337699;28;20303;-82
2021/06/17 11:04:12;;;;;;;5.60;5.10;;;33.70;44.10;;;;;;10388273;22;20367;-78
2021/06/17 11:09:43;;;;;;;5.70;5.07;;;33.00;45.00;;;;;;10421816;28;20631;-79
2021/06/17 11:14:47;;;;;;;5.60;5.20;;;32.50;45.70;;;;;;10422117;28;20233;-79
2021/06/17 11:19:57;;;;;;;5.93;5.50;;;32.20;47.70;;;;;;10421747;28;20201;-78
2021/06/17 11:25:11;;;;;;;6.10;5.70;;;31.90;47.50;;;;;;10418772;28;20222;-78
2021/06/17 11:30:15;;;;;;;5.27;4.23;;;31.60;48.30;;;;;;10417374;28;20201;-79
2021/06/17 11:35:23;;;;;;;5.47;5.17;;;31.40;48.70;;;;;;10417824;28;20225;-79
2021/06/17 11:40:27;;;;;;;7.80;5.37;;;31.20;48.10;;;;;;10433613;28;20200;-79
2021/06/17 11:45:32;;;;;;;6.40;5.80;;;31.00;48.30;;;;;;10433499;28;20218;-78
2021/06/17 11:50:43;;;;;;;5.27;4.87;;;30.90;48.60;;;;;;10400264;28;20293;-79
2021/06/17 11:55:51;;;;;;;6.77;4.97;;;30.80;48.70;;;;;;10416968;28;20649;-79
2021/06/17 12:00:53;;;;;;;6.17;5.67;;;30.60;49.90;;;;;;10418550;28;20206;-79
2021/06/17 12:06:06;;;;;;;5.87;5.47;;;30.50;52.10;;;;;;10419783;28;20600;-79
2021/06/17 12:11:20;;;;;;;5.60;5.30;;;30.40;48.80;;;;;;10417048;28;20464;-79
2021/06/17 12:16:22;;;;;;;6.20;5.80;;;30.40;47.60;;;;;;10417765;28;20226;-79
2021/06/17 12:21:28;;;;;;;6.10;5.70;;;30.40;49.70;;;;;;10418849;28;20233;-79
2021/06/17 12:26:34;;;;;;;11.33;5.50;;;30.50;49.00;;;;;;10416175;28;20293;-79
2021/06/17 12:31:38;;;;;;;6.27;5.77;;;30.50;49.50;;;;;;10418065;28;20204;-79
2021/06/17 12:36:41;;;;;;;5.97;5.47;;;30.50;50.00;;;;;;10416713;28;20226;-79
2021/06/17 12:41:48;;;;;;;5.60;5.10;;;30.50;50.00;;;;;;10417164;28;20210;-79
2021/06/17 12:46:56;;;;;;;5.97;5.50;;;30.50;49.40;;;;;;10417896;28;20341;-78
2021/06/17 12:52:06;;;;;;;5.73;5.33;;;30.40;50.00;;;;;;10417958;28;20572;-78
2021/06/17 12:57:16;;;;;;;5.57;5.20;;;30.40;50.70;;;;;;10419924;28;20257;-78
2021/06/17 13:02:34;;;;;;;6.07;5.67;;;30.30;50.10;;;;;;10425141;28;20260;-79
2021/06/17 13:07:38;;;;;;;5.67;5.23;;;30.30;50.90;;;;;;10424095;28;20233;-79
2021/06/17 13:12:42;;;;;;;5.60;5.20;;;30.20;49.30;;;;;;10424778;28;20719;-79
2021/06/17 13:17:45;;;;;;;5.30;4.80;;;30.30;49.10;;;;;;10424865;28;20308;-79
2021/06/17 13:22:53;;;;;;;5.60;5.17;;;30.20;50.20;;;;;;10432118;28;20638;-79
2021/06/17 13:27:57;;;;;;;5.87;5.37;;;30.20;48.40;;;;;;10442281;28;20209;-79
2021/06/17 13:33:01;;;;;;;6.33;4.53;;;30.30;47.80;;;;;;10433764;28;20273;-79
2021/06/17 13:38:04;;;;;;;5.50;5.07;;;30.40;47.60;;;;;;10424105;28;20228;-79
2021/06/17 13:43:07;;;;;;;5.60;5.20;;;30.40;49.30;;;;;;10424451;28;20716;-79
2021/06/17 13:48:10;;;;;;;6.77;5.33;;;30.40;49.50;;;;;;10424126;28;20281;-79
2021/06/17 13:53:12;;;;;;;4.87;4.47;;;30.40;48.40;;;;;;10422843;28;20210;-78
2021/06/17 13:58:36;;;;;;;4.40;4.10;;;30.50;47.70;;;;;;10422348;28;20253;-78
2021/06/17 14:03:38;;;;;;;7.40;4.90;;;30.40;46.80;;;;;;10418639;28;20225;-79
2021/06/17 14:08:42;;;;;;;4.73;4.17;;;30.40;47.10;;;;;;10419664;28;20252;-79
2021/06/17 14:13:45;;;;;;;4.83;4.27;;;30.40;49.00;;;;;;10425812;28;20218;-79
2021/06/17 14:18:47;;;;;;;4.97;4.67;;;30.30;48.20;;;;;;10421940;28;20252;-79
2021/06/17 14:23:49;;;;;;;7.60;5.20;;;30.30;49.00;;;;;;10420719;28;20214;-79
2021/06/17 14:28:53;;;;;;;4.83;4.53;;;30.30;48.40;;;;;;10422506;28;20190;-79
2021/06/17 14:33:55;;;;;;;6.00;4.70;;;30.40;47.20;;;;;;10422089;28;20225;-79
2021/06/17 14:38:57;;;;;;;5.77;5.20;;;30.40;48.10;;;;;;10422199;28;20751;-79
2021/06/17 14:44:01;;;;;;;4.87;4.57;;;30.40;48.80;;;;;;10421157;28;20251;-79
2021/06/17 14:49:03;;;;;;;4.57;4.10;;;30.30;49.60;;;;;;10403875;28;20209;-79
2021/06/17 14:54:06;;;;;;;6.63;4.40;;;30.20;49.50;;;;;;10421364;28;20222;-79
2021/06/17 14:59:09;;;;;;;5.03;4.60;;;30.10;48.60;;;;;;10421187;28;20588;-79
2021/06/17 15:04:11;;;;;;;7.30;6.63;;;30.20;49.20;;;;;;10421763;28;20293;-79
2021/06/17 15:09:13;;;;;;;5.17;4.73;;;30.10;50.10;;;;;;10420858;28;20200;-79
2021/06/17 15:14:17;;;;;;;5.53;4.40;;;30.00;47.60;;;;;;10423119;28;20245;-79
2021/06/17 15:19:19;;;;;;;4.27;3.83;;;30.20;46.30;;;;;;10420029;28;20590;-79
2021/06/17 15:24:21;;;;;;;4.43;4.13;;;30.40;45.60;;;;;;10420896;28;20221;-79
2021/06/17 15:29:25;;;;;;;6.13;3.80;;;30.60;45.80;;;;;;10420456;28;20208;-79
2021/06/17 15:34:28;;;;;;;5.00;4.60;;;30.60;47.50;;;;;;10420707;28;20245;-79
2021/06/17 15:39:30;;;;;;;7.00;4.97;;;30.60;46.40;;;;;;10417703;28;20233;-79
2021/06/17 15:44:34;;;;;;;4.80;4.50;;;30.50;46.80;;;;;;10418991;28;20272;-79
2021/06/17 15:49:37;;;;;;;11.00;4.70;;;30.50;46.60;;;;;;10419447;28;20225;-79
2021/06/17 15:54:39;;;;;;;4.07;3.77;;;30.30;48.00;;;;;;10418287;28;20227;-79
2021/06/17 15:59:42;;;;;;;4.97;4.67;;;30.20;46.90;;;;;;10417639;28;20228;-79
2021/06/17 16:04:44;;;;;;;5.30;4.80;;;30.10;48.10;;;;;;10419072;28;20257;-79
2021/06/17 16:09:46;;;;;;;5.10;4.70;;;30.10;46.80;;;;;;10401664;28;20858;-79
2021/06/17 16:14:51;;;;;;;5.60;4.20;;;30.00;49.60;;;;;;10417643;28;20697;-79
2021/06/17 16:19:53;;;;;;;4.50;4.10;;;29.80;50.90;;;;;;10419077;28;20245;-79
2021/06/17 16:24:56;;;;;;;5.40;5.00;;;29.80;53.40;;;;;;10421781;28;20245;-79
2021/06/17 16:29:59;;;;;;;5.33;4.57;;;29.70;54.30;;;;;;10419892;28;20240;-79
2021/06/17 16:35:02;;;;;;;5.73;5.13;;;29.70;55.50;;;;;;10417053;28;20225;-79
2021/06/17 16:40:05;;;;;;;5.23;4.73;;;29.60;57.00;;;;;;10416370;28;20222;-79
2021/06/17 16:45:11;;;;;;;6.47;5.50;;;29.60;57.70;;;;;;10417615;28;20255;-79
2021/06/17 16:50:14;;;;;;;8.97;4.10;;;29.50;58.00;;;;;;10418135;28;20206;-79
2021/06/17 16:55:18;;;;;;;4.73;4.33;;;29.40;58.00;;;;;;10417647;28;20662;-79
2021/06/17 17:00:23;;;;;;;5.77;5.13;;;29.30;57.60;;;;;;10418177;28;20232;-79
2021/06/17 17:05:37;;;;;;;4.93;4.53;;;29.10;58.50;;;;;;10495680;22;20293;-82
2021/06/17 17:10:39;;;;;;;4.80;4.40;;;28.90;59.20;;;;;;10521631;28;20204;-82
2021/06/17 17:15:43;;;;;;;9.27;4.83;;;28.80;59.30;;;;;;10515975;28;20225;-82
2021/06/17 17:20:45;;;;;;;5.90;4.97;;;28.70;58.20;;;;;;10493755;28;20224;-82
2021/06/17 17:25:50;;;;;;;4.90;4.50;;;28.60;58.60;;;;;;10503382;28;20247;-81
2021/06/17 17:30:54;;;;;;;5.33;4.83;;;28.40;59.70;;;;;;10521694;28;20196;-81
2021/06/17 17:41:14;;;;;;;6.03;5.63;;;28.20;60.00;;;;;;10528767;28;20210;-82
2021/06/17 17:46:18;;;;;;;5.20;4.70;;;28.10;59.80;;;;;;10516758;28;20636;-82
2021/06/17 17:51:20;;;;;;;5.20;4.73;;;28.00;59.80;;;;;;10496441;28;20204;-82
2021/06/17 17:56:22;;;;;;;5.30;4.57;;;27.90;59.40;;;;;;10492371;28;20658;-82
2021/06/17 18:01:26;;;;;;;7.53;4.77;;;27.90;59.60;;;;;;10531967;28;20203;-82
2021/06/17 18:06:28;;;;;;;5.43;5.03;;;27.80;60.30;;;;;;10482601;28;20718;-82
2021/06/17 18:11:30;;;;;;;7.27;5.10;;;27.80;60.40;;;;;;10547393;28;20235;-82
2021/06/17 18:17:09;;;;;;;5.00;4.50;;;27.70;61.60;;;;;;10507027;28;20230;-81
2021/06/17 18:22:14;;;;;;;7.80;4.80;;;27.70;60.20;;;;;;10509254;28;20261;-82
2021/06/17 18:27:19;;;;;;;5.77;5.17;;;27.60;60.60;;;;;;10518469;28;20609;-82
2021/06/17 18:32:21;;;;;;;5.73;5.33;;;27.60;60.60;;;;;;10503777;28;20206;-81
2021/06/17 18:37:27;;;;;;;6.13;5.53;;;27.60;60.20;;;;;;10523300;28;20256;-82
2021/06/17 18:42:29;;;;;;;5.33;4.93;;;27.50;60.80;;;;;;10535524;28;20206;-82
2021/06/17 18:47:37;;;;;;;9.97;5.20;;;27.50;61.20;;;;;;10516069;28;20227;-82
2021/06/17 18:52:42;;;;;;;6.37;5.70;;;27.40;61.30;;;;;;10523705;28;20207;-81
2021/06/17 18:57:44;;;;;;;6.63;6.03;;;27.40;60.50;;;;;;10497003;28;20322;-82
2021/06/17 19:02:47;;;;;;;8.50;5.60;;;27.30;61.00;;;;;;10516125;28;20208;-81
2021/06/17 19:07:50;;;;;;;5.77;5.17;;;27.20;61.50;;;;;;10484485;28;20269;-82
2021/06/17 19:12:52;;;;;;;5.33;4.93;;;27.10;60.90;;;;;;10482659;28;20424;-81
2021/06/17 19:17:55;;;;;;;7.30;5.80;;;27.00;60.80;;;;;;10520313;28;20224;-81
2021/06/17 19:22:58;;;;;;;5.63;5.00;;;27.00;60.70;;;;;;10501250;28;20695;-83
2021/06/17 19:28:00;;;;;;;12.00;5.50;;;26.90;59.80;;;;;;10536652;28;20218;-81
2021/06/17 19:33:06;;;;;;;5.60;5.10;;;26.80;59.50;;;;;;10487444;28;20219;-81
2021/06/17 19:38:18;;;;;;;5.80;5.30;;;26.70;60.00;;;;;;10489955;28;20259;-82
2021/06/17 19:43:20;;;;;;;5.60;5.20;;;26.60;59.80;;;;;;10471608;28;20261;-82
2021/06/17 19:48:22;;;;;;;5.40;4.90;;;26.50;59.40;;;;;;10521497;28;20274;-82
2021/06/17 19:53:32;;;;;;;5.37;4.87;;;26.50;60.10;;;;;;10485915;28;20219;-81
2021/06/17 19:58:35;;;;;;;6.00;4.90;;;26.40;59.40;;;;;;10503668;28;20224;-82
2021/06/17 20:03:38;;;;;;;5.07;4.57;;;26.40;59.70;;;;;;10508759;28;20231;-81
2021/06/17 20:08:42;;;;;;;5.70;5.17;;;26.30;60.00;;;;;;10512672;28;20237;-82
2021/06/17 20:13:44;;;;;;;5.10;4.77;;;26.30;62.80;;;;;;10538563;28;20301;-81
2021/06/17 20:18:46;;;;;;;5.43;4.70;;;26.30;62.40;;;;;;10502718;28;20232;-82
2021/06/17 20:23:51;;;;;;;5.07;4.67;;;26.30;62.70;;;;;;10538514;28;20250;-82
2021/06/17 20:28:53;;;;;;;5.70;5.30;;;26.20;61.90;;;;;;10516843;28;20194;-82
2021/06/17 20:33:55;;;;;;;10.10;9.30;;;26.20;61.90;;;;;;10518750;28;20223;-82
2021/06/17 20:38:59;;;;;;;6.00;5.27;;;26.10;61.80;;;;;;10518815;28;20215;-81
2021/06/17 20:44:03;;;;;;;7.40;5.10;;;26.10;62.40;;;;;;10540391;28;20273;-82
2021/06/17 20:49:09;;;;;;;9.60;5.63;;;26.00;63.20;;;;;;10506677;28;20207;-82
2021/06/17 20:54:13;;;;;;;5.33;4.93;;;26.00;63.00;;;;;;10464069;28;20315;-82
2021/06/17 20:59:15;;;;;;;5.83;5.23;;;25.90;64.10;;;;;;10474484;28;20216;-83
2021/06/17 21:04:18;;;;;;;7.33;5.37;;;25.90;62.40;;;;;;10481584;28;20596;-82
2021/06/17 21:09:34;;;;;;;6.07;5.57;;;25.90;63.30;;;;;;10474070;28;20214;-82
2021/06/17 21:14:39;;;;;;;5.27;4.77;;;25.80;63.70;;;;;;10480775;28;20220;-82
2021/06/17 21:19:43;;;;;;;6.63;6.00;;;25.80;65.20;;;;;;10502008;28;20243;-81
2021/06/17 21:24:47;;;;;;;7.40;4.87;;;25.70;64.80;;;;;;10473931;28;20216;-81
2021/06/17 21:29:57;;;;;;;5.33;4.83;;;25.60;64.90;;;;;;10484519;28;20204;-81
2021/06/17 21:35:00;;;;;;;6.17;5.57;;;25.60;64.30;;;;;;10454585;28;20232;-81
2021/06/17 21:40:04;;;;;;;5.57;5.17;;;25.50;64.70;;;;;;10513080;28;20676;-81
2021/06/17 21:45:07;;;;;;;5.57;5.13;;;25.40;64.90;;;;;;10490787;28;20224;-81
2021/06/17 21:50:11;;;;;;;4.57;4.03;;;25.40;65.30;;;;;;10512758;28;20233;-81
2021/06/17 21:55:15;;;;;;;6.07;5.57;;;25.30;65.00;;;;;;10518335;28;20280;-82
2021/06/17 22:00:19;;;;;;;4.67;4.37;;;25.30;65.20;;;;;;10472938;28;20208;-81
2021/06/17 22:05:22;;;;;;;5.03;4.73;;;25.20;66.40;;;;;;10474300;28;20680;-82
2021/06/17 22:10:26;;;;;;;4.90;4.50;;;25.20;67.10;;;;;;10510195;28;20200;-81
2021/06/17 22:15:28;;;;;;;4.87;4.57;;;25.20;67.40;;;;;;10489778;28;20250;-81
2021/06/17 22:20:30;;;;;;;6.43;4.27;;;25.10;67.60;;;;;;10520229;28;20216;-82
2021/06/17 22:25:34;;;;;;;5.30;4.70;;;25.10;65.40;;;;;;10519142;28;20208;-82
2021/06/17 22:30:36;;;;;;;4.50;4.20;;;25.00;64.80;;;;;;10487465;28;20203;-82
2021/06/17 22:35:38;;;;;;;4.77;4.37;;;25.00;65.20;;;;;;10531677;28;20224;-82
2021/06/17 22:40:42;;;;;;;4.93;4.53;;;24.90;64.80;;;;;;10521779;28;20228;-82
2021/06/17 22:45:44;;;;;;;5.37;4.37;;;24.80;65.10;;;;;;10525083;28;20314;-82
2021/06/17 22:50:46;;;;;;;5.03;4.40;;;24.80;65.70;;;;;;10482048;28;20493;-81
2021/06/17 22:55:50;;;;;;;9.10;4.90;;;24.80;65.00;;;;;;10522209;28;20228;-82
2021/06/17 23:00:52;;;;;;;4.53;4.23;;;24.70;64.70;;;;;;10522710;28;20230;-82
2021/06/17 23:11:20;;;;;;;4.87;4.57;;;24.60;65.00;;;;;;10505450;28;20208;-82
2021/06/17 23:16:22;;;;;;;4.87;4.10;;;24.50;66.10;;;;;;10488006;28;20216;-82
2021/06/17 23:21:25;;;;;;;5.00;4.40;;;24.40;65.40;;;;;;10497270;28;20223;-80
2021/06/17 23:26:28;;;;;;;11.87;4.30;;;24.40;64.70;;;;;;10477845;28;21201;-81
2021/06/17 23:31:31;;;;;;;4.13;3.83;;;24.30;65.50;;;;;;10484664;28;20651;-80
2021/06/17 23:36:33;;;;;;;4.70;4.40;;;24.20;64.20;;;;;;10489760;28;20216;-84
2021/06/17 23:41:36;;;;;;;4.73;4.17;;;24.20;63.80;;;;;;10499709;28;20212;-81
2021/06/17 23:46:41;;;;;;;4.10;3.67;;;24.10;63.90;;;;;;10491424;28;20212;-81
2021/06/17 23:51:43;;;;;;;4.07;3.77;;;24.00;63.40;;;;;;10474393;28;20665;-81
2021/06/17 23:56:46;;;;;;;3.60;3.40;;;24.00;63.90;;;;;;10489951;28;20224;-81
